sensor_id;sensor_type;location;lat;lon;timestamp;temperature;humidity
76168;DHT22;64927;48.214;16.378;2024-02-04T00:00:00;11.00;66.40
76168;DHT22;64927;48.214;16.378;2024-02-04T00:02:25;10.90;66.50
76168;DHT22;64927;48.214;16.378;2024-02-04T00:04:52;11.00;66.30
76168;DHT22;64927;48.214;16.378;2024-02-04T00:07:20;11.00;66.40
76168;DHT22;64927;48.214;16.378;2024-02-04T00:09:46;11.00;66.60
76168;DHT22;64927;48.214;16.378;2024-02-04T00:12:14;11.00;66.40
76168;DHT22;64927;48.214;16.378;2024-02-04T00:14:42;11.10;66.00
76168;DHT22;64927;48.214;16.378;2024-02-04T00:17:10;11.10;65.80
76168;DHT22;64927;48.214;16.378;2024-02-04T00:19:36;11.00;66.00
76168;DHT22;64927;48.214;16.378;2024-02-04T00:22:02;11.00;66.20
76168;DHT22;64927;48.214;16.378;2024-02-04T00:24:27;11.00;66.20
76168;DHT22;64927;48.214;16.378;2024-02-04T00:26:53;11.00;66.10
76168;DHT22;64927;48.214;16.378;2024-02-04T00:29:23;11.00;66.00
76168;DHT22;64927;48.214;16.378;2024-02-04T00:31:49;11.00;66.10
76168;DHT22;64927;48.214;16.378;2024-02-04T00:34:14;11.00;66.00
76168;DHT22;64927;48.214;16.378;2024-02-04T00:36:40;11.00;66.00
76168;DHT22;64927;48.214;16.378;2024-02-04T00:39:08;10.90;66.10
76168;DHT22;64927;48.214;16.378;2024-02-04T00:41:34;11.00;66.00
76168;DHT22;64927;48.214;16.378;2024-02-04T00:44:01;11.00;66.10
76168;DHT22;64927;48.214;16.378;2024-02-04T00:46:26;11.00;65.90
76168;DHT22;64927;48.214;16.378;2024-02-04T00:48:52;11.10;65.90
76168;DHT22;64927;48.214;16.378;2024-02-04T00:51:18;11.10;65.90
76168;DHT22;64927;48.214;16.378;2024-02-04T00:53:45;11.10;66.50
76168;DHT22;64927;48.214;16.378;2024-02-04T00:56:13;11.10;65.70
76168;DHT22;64927;48.214;16.378;2024-02-04T00:58:44;11.20;65.80
76168;DHT22;64927;48.214;16.378;2024-02-04T01:01:10;11.10;65.50
76168;DHT22;64927;48.214;16.378;2024-02-04T01:03:35;11.10;65.60
76168;DHT22;64927;48.214;16.378;2024-02-04T01:06:01;11.20;65.50
76168;DHT22;64927;48.214;16.378;2024-02-04T01:08:26;11.20;65.60
76168;DHT22;64927;48.214;16.378;2024-02-04T01:10:52;11.30;65.70
76168;DHT22;64927;48.214;16.378;2024-02-04T01:13:20;11.20;66.10
76168;DHT22;64927;48.214;16.378;2024-02-04T01:15:45;11.10;67.00
76168;DHT22;64927;48.214;16.378;2024-02-04T01:18:11;11.10;67.40
76168;DHT22;64927;48.214;16.378;2024-02-04T01:20:37;11.10;67.90
76168;DHT22;64927;48.214;16.378;2024-02-04T01:23:02;10.80;68.80
76168;DHT22;64927;48.214;16.378;2024-02-04T01:25:28;10.80;69.10
76168;DHT22;64927;48.214;16.378;2024-02-04T01:27:53;10.80;69.30
76168;DHT22;64927;48.214;16.378;2024-02-04T01:30:19;10.70;69.70
76168;DHT22;64927;48.214;16.378;2024-02-04T01:32:45;10.70;69.90
76168;DHT22;64927;48.214;16.378;2024-02-04T01:35:11;10.70;70.30
76168;DHT22;64927;48.214;16.378;2024-02-04T01:37:43;10.70;70.00
76168;DHT22;64927;48.214;16.378;2024-02-04T01:40:09;10.70;70.40
76168;DHT22;64927;48.214;16.378;2024-02-04T01:42:41;10.60;70.60
76168;DHT22;64927;48.214;16.378;2024-02-04T01:45:07;10.70;70.70
76168;DHT22;64927;48.214;16.378;2024-02-04T01:47:33;10.70;70.80
76168;DHT22;64927;48.214;16.378;2024-02-04T01:50:00;10.70;71.20
76168;DHT22;64927;48.214;16.378;2024-02-04T01:52:26;10.70;71.40
76168;DHT22;64927;48.214;16.378;2024-02-04T01:54:52;10.50;72.20
76168;DHT22;64927;48.214;16.378;2024-02-04T01:57:22;10.50;72.40
76168;DHT22;64927;48.214;16.378;2024-02-04T01:59:48;10.40;73.30
76168;DHT22;64927;48.214;16.378;2024-02-04T02:02:19;10.40;73.80
76168;DHT22;64927;48.214;16.378;2024-02-04T02:04:46;10.30;74.60
76168;DHT22;64927;48.214;16.378;2024-02-04T02:07:13;10.20;75.40
76168;DHT22;64927;48.214;16.378;2024-02-04T02:09:40;10.10;75.70
76168;DHT22;64927;48.214;16.378;2024-02-04T02:12:10;10.00;76.50
76168;DHT22;64927;48.214;16.378;2024-02-04T02:14:41;9.90;77.00
76168;DHT22;64927;48.214;16.378;2024-02-04T02:17:11;9.90;77.50
76168;DHT22;64927;48.214;16.378;2024-02-04T02:20:05;9.90;77.70
76168;DHT22;64927;48.214;16.378;2024-02-04T02:22:45;10.00;77.40
76168;DHT22;64927;48.214;16.378;2024-02-04T02:25:14;9.90;78.00
76168;DHT22;64927;48.214;16.378;2024-02-04T02:27:49;9.80;78.10
76168;DHT22;64927;48.214;16.378;2024-02-04T02:30:16;9.90;78.00
76168;DHT22;64927;48.214;16.378;2024-02-04T02:32:46;9.90;77.90
76168;DHT22;64927;48.214;16.378;2024-02-04T02:35:16;9.90;77.90
76168;DHT22;64927;48.214;16.378;2024-02-04T02:38:49;9.90;77.90
76168;DHT22;64927;48.214;16.378;2024-02-04T02:41:07;9.90;77.80
76168;DHT22;64927;48.214;16.378;2024-02-04T02:43:34;9.90;78.00
76168;DHT22;64927;48.214;16.378;2024-02-04T02:46:03;9.80;78.30
76168;DHT22;64927;48.214;16.378;2024-02-04T02:48:29;9.90;78.10
76168;DHT22;64927;48.214;16.378;2024-02-04T02:50:55;9.90;77.70
76168;DHT22;64927;48.214;16.378;2024-02-04T02:53:23;9.80;78.30
76168;DHT22;64927;48.214;16.378;2024-02-04T02:55:51;9.80;78.00
76168;DHT22;64927;48.214;16.378;2024-02-04T02:58:17;9.90;77.80
76168;DHT22;64927;48.214;16.378;2024-02-04T03:00:42;9.90;77.80
76168;DHT22;64927;48.214;16.378;2024-02-04T03:03:08;10.00;76.80
76168;DHT22;64927;48.214;16.378;2024-02-04T03:05:33;10.00;77.20
76168;DHT22;64927;48.214;16.378;2024-02-04T03:07:59;10.00;77.10
76168;DHT22;64927;48.214;16.378;2024-02-04T03:10:29;10.00;76.70
76168;DHT22;64927;48.214;16.378;2024-02-04T03:12:55;10.10;76.10
76168;DHT22;64927;48.214;16.378;2024-02-04T03:15:20;10.10;76.20
76168;DHT22;64927;48.214;16.378;2024-02-04T03:17:46;10.10;76.00
76168;DHT22;64927;48.214;16.378;2024-02-04T03:20:11;10.10;75.90
76168;DHT22;64927;48.214;16.378;2024-02-04T03:22:37;10.10;75.70
76168;DHT22;64927;48.214;16.378;2024-02-04T03:25:03;10.10;75.80
76168;DHT22;64927;48.214;16.378;2024-02-04T03:27:28;10.10;75.60
76168;DHT22;64927;48.214;16.378;2024-02-04T03:29:54;10.10;75.20
76168;DHT22;64927;48.214;16.378;2024-02-04T03:32:24;10.20;75.00
76168;DHT22;64927;48.214;16.378;2024-02-04T03:34:50;10.10;74.80
76168;DHT22;64927;48.214;16.378;2024-02-04T03:37:18;10.20;74.50
76168;DHT22;64927;48.214;16.378;2024-02-04T03:39:46;10.10;74.60
76168;DHT22;64927;48.214;16.378;2024-02-04T03:42:11;10.20;74.20
76168;DHT22;64927;48.214;16.378;2024-02-04T03:44:37;10.30;74.10
76168;DHT22;64927;48.214;16.378;2024-02-04T03:47:03;10.30;74.20
76168;DHT22;64927;48.214;16.378;2024-02-04T03:49:29;10.20;73.90
76168;DHT22;64927;48.214;16.378;2024-02-04T03:51:54;10.20;74.10
76168;DHT22;64927;48.214;16.378;2024-02-04T03:54:22;10.30;74.10
76168;DHT22;64927;48.214;16.378;2024-02-04T03:56:47;10.30;73.80
76168;DHT22;64927;48.214;16.378;2024-02-04T03:59:13;10.30;73.80
76168;DHT22;64927;48.214;16.378;2024-02-04T04:01:38;10.30;73.90
76168;DHT22;64927;48.214;16.378;2024-02-04T04:04:04;10.30;73.70
76168;DHT22;64927;48.214;16.378;2024-02-04T04:06:30;10.30;73.50
76168;DHT22;64927;48.214;16.378;2024-02-04T04:08:56;10.40;73.40
76168;DHT22;64927;48.214;16.378;2024-02-04T04:11:24;10.30;73.50
76168;DHT22;64927;48.214;16.378;2024-02-04T04:13:50;10.40;73.40
76168;DHT22;64927;48.214;16.378;2024-02-04T04:16:15;10.40;73.30
76168;DHT22;64927;48.214;16.378;2024-02-04T04:18:45;10.40;73.10
76168;DHT22;64927;48.214;16.378;2024-02-04T04:21:10;10.40;73.40
76168;DHT22;64927;48.214;16.378;2024-02-04T04:23:36;10.40;73.00
76168;DHT22;64927;48.214;16.378;2024-02-04T04:26:02;10.40;73.20
76168;DHT22;64927;48.214;16.378;2024-02-04T04:28:27;10.40;73.30
76168;DHT22;64927;48.214;16.378;2024-02-04T04:30:55;10.40;73.00
76168;DHT22;64927;48.214;16.378;2024-02-04T04:33:21;10.30;73.20
76168;DHT22;64927;48.214;16.378;2024-02-04T04:35:46;10.30;73.20
76168;DHT22;64927;48.214;16.378;2024-02-04T04:38:12;10.30;73.30
76168;DHT22;64927;48.214;16.378;2024-02-04T04:40:38;10.30;73.20
76168;DHT22;64927;48.214;16.378;2024-02-04T04:43:06;10.30;73.20
76168;DHT22;64927;48.214;16.378;2024-02-04T04:45:34;10.30;73.40
76168;DHT22;64927;48.214;16.378;2024-02-04T04:48:02;10.30;73.10
76168;DHT22;64927;48.214;16.378;2024-02-04T04:50:28;10.30;73.00
76168;DHT22;64927;48.214;16.378;2024-02-04T04:52:56;10.40;72.70
76168;DHT22;64927;48.214;16.378;2024-02-04T04:55:22;10.40;72.50
76168;DHT22;64927;48.214;16.378;2024-02-04T04:57:52;10.40;72.60
76168;DHT22;64927;48.214;16.378;2024-02-04T05:00:18;10.40;72.40
76168;DHT22;64927;48.214;16.378;2024-02-04T05:02:44;10.40;72.30
76168;DHT22;64927;48.214;16.378;2024-02-04T05:05:12;10.40;71.90
76168;DHT22;64927;48.214;16.378;2024-02-04T05:07:41;10.50;71.50
76168;DHT22;64927;48.214;16.378;2024-02-04T05:10:07;10.50;71.50
76168;DHT22;64927;48.214;16.378;2024-02-04T05:12:34;10.40;71.60
76168;DHT22;64927;48.214;16.378;2024-02-04T05:15:00;10.40;71.60
76168;DHT22;64927;48.214;16.378;2024-02-04T05:17:26;10.40;71.50
76168;DHT22;64927;48.214;16.378;2024-02-04T05:19:57;10.50;71.40
76168;DHT22;64927;48.214;16.378;2024-02-04T05:22:22;10.50;71.00
76168;DHT22;64927;48.214;16.378;2024-02-04T05:24:48;10.50;71.00
76168;DHT22;64927;48.214;16.378;2024-02-04T05:27:13;10.50;71.00
76168;DHT22;64927;48.214;16.378;2024-02-04T05:29:39;10.60;70.70
76168;DHT22;64927;48.214;16.378;2024-02-04T05:32:05;10.60;70.40
76168;DHT22;64927;48.214;16.378;2024-02-04T05:34:30;10.60;70.30
76168;DHT22;64927;48.214;16.378;2024-02-04T05:36:57;10.60;70.30
76168;DHT22;64927;48.214;16.378;2024-02-04T05:39:23;10.60;70.10
76168;DHT22;64927;48.214;16.378;2024-02-04T05:41:49;10.60;70.00
76168;DHT22;64927;48.214;16.378;2024-02-04T05:44:15;10.60;70.10
76168;DHT22;64927;48.214;16.378;2024-02-04T05:46:40;10.50;70.20
76168;DHT22;64927;48.214;16.378;2024-02-04T05:49:08;10.60;70.20
76168;DHT22;64927;48.214;16.378;2024-02-04T05:51:40;10.60;69.90
76168;DHT22;64927;48.214;16.378;2024-02-04T05:54:06;10.50;70.50
76168;DHT22;64927;48.214;16.378;2024-02-04T05:56:32;10.50;70.70
76168;DHT22;64927;48.214;16.378;2024-02-04T05:58:58;10.50;70.40
76168;DHT22;64927;48.214;16.378;2024-02-04T06:01:24;10.50;70.60
76168;DHT22;64927;48.214;16.378;2024-02-04T06:03:49;10.50;70.30
76168;DHT22;64927;48.214;16.378;2024-02-04T06:06:15;10.50;70.30
76168;DHT22;64927;48.214;16.378;2024-02-04T06:08:42;10.50;70.40
76168;DHT22;64927;48.214;16.378;2024-02-04T06:11:16;10.60;70.30
76168;DHT22;64927;48.214;16.378;2024-02-04T06:13:43;10.50;70.40
76168;DHT22;64927;48.214;16.378;2024-02-04T06:16:11;10.40;70.50
76168;DHT22;64927;48.214;16.378;2024-02-04T06:18:40;10.40;70.70
76168;DHT22;64927;48.214;16.378;2024-02-04T06:21:08;10.50;70.60
76168;DHT22;64927;48.214;16.378;2024-02-04T06:23:34;10.60;70.50
76168;DHT22;64927;48.214;16.378;2024-02-04T06:26:03;10.60;70.00
76168;DHT22;64927;48.214;16.378;2024-02-04T06:28:31;10.60;70.00
76168;DHT22;64927;48.214;16.378;2024-02-04T06:30:57;10.60;70.00
76168;DHT22;64927;48.214;16.378;2024-02-04T06:33:23;10.60;70.00
76168;DHT22;64927;48.214;16.378;2024-02-04T06:35:50;10.60;69.60
76168;DHT22;64927;48.214;16.378;2024-02-04T06:38:16;10.60;69.90
76168;DHT22;64927;48.214;16.378;2024-02-04T06:40:43;10.60;69.20
76168;DHT22;64927;48.214;16.378;2024-02-04T06:43:09;10.70;69.10
76168;DHT22;64927;48.214;16.378;2024-02-04T06:45:35;10.60;69.20
76168;DHT22;64927;48.214;16.378;2024-02-04T06:48:00;10.70;69.30
76168;DHT22;64927;48.214;16.378;2024-02-04T06:50:26;10.70;69.10
76168;DHT22;64927;48.214;16.378;2024-02-04T06:52:52;10.60;69.10
76168;DHT22;64927;48.214;16.378;2024-02-04T06:55:17;10.60;69.50
76168;DHT22;64927;48.214;16.378;2024-02-04T06:57:43;10.60;69.10
76168;DHT22;64927;48.214;16.378;2024-02-04T07:00:09;10.70;69.10
76168;DHT22;64927;48.214;16.378;2024-02-04T07:02:35;10.60;69.10
76168;DHT22;64927;48.214;16.378;2024-02-04T07:05:00;10.60;69.30
76168;DHT22;64927;48.214;16.378;2024-02-04T07:07:26;10.70;69.00
76168;DHT22;64927;48.214;16.378;2024-02-04T07:09:52;10.70;68.90
76168;DHT22;64927;48.214;16.378;2024-02-04T07:12:17;10.80;68.50
76168;DHT22;64927;48.214;16.378;2024-02-04T07:14:43;10.90;68.20
76168;DHT22;64927;48.214;16.378;2024-02-04T07:17:09;10.90;68.20
76168;DHT22;64927;48.214;16.378;2024-02-04T07:19:34;11.00;68.00
76168;DHT22;64927;48.214;16.378;2024-02-04T07:22:02;11.00;67.40
76168;DHT22;64927;48.214;16.378;2024-02-04T07:24:30;11.20;66.90
76168;DHT22;64927;48.214;16.378;2024-02-04T07:26:56;11.20;66.80
76168;DHT22;64927;48.214;16.378;2024-02-04T07:29:24;11.10;66.80
76168;DHT22;64927;48.214;16.378;2024-02-04T07:31:49;11.20;66.90
76168;DHT22;64927;48.214;16.378;2024-02-04T07:34:15;11.30;66.40
76168;DHT22;64927;48.214;16.378;2024-02-04T07:36:41;11.30;66.40
76168;DHT22;64927;48.214;16.378;2024-02-04T07:39:06;11.30;66.50
76168;DHT22;64927;48.214;16.378;2024-02-04T07:41:32;11.40;66.40
76168;DHT22;64927;48.214;16.378;2024-02-04T07:43:57;11.40;66.20
76168;DHT22;64927;48.214;16.378;2024-02-04T07:46:26;11.40;66.50
76168;DHT22;64927;48.214;16.378;2024-02-04T07:48:56;11.40;66.30
76168;DHT22;64927;48.214;16.378;2024-02-04T07:51:24;11.50;66.60
76168;DHT22;64927;48.214;16.378;2024-02-04T07:53:50;11.50;65.90
76168;DHT22;64927;48.214;16.378;2024-02-04T07:56:16;11.50;66.20
76168;DHT22;64927;48.214;16.378;2024-02-04T07:58:43;11.60;66.10
76168;DHT22;64927;48.214;16.378;2024-02-04T08:01:11;11.50;65.90
76168;DHT22;64927;48.214;16.378;2024-02-04T08:03:37;11.40;65.90
76168;DHT22;64927;48.214;16.378;2024-02-04T08:06:05;11.40;66.00
76168;DHT22;64927;48.214;16.378;2024-02-04T08:08:33;11.30;65.90
76168;DHT22;64927;48.214;16.378;2024-02-04T08:10:59;11.40;67.10
76168;DHT22;64927;48.214;16.378;2024-02-04T08:13:24;11.50;65.80
76168;DHT22;64927;48.214;16.378;2024-02-04T08:15:50;11.50;65.90
76168;DHT22;64927;48.214;16.378;2024-02-04T08:18:15;11.60;66.20
76168;DHT22;64927;48.214;16.378;2024-02-04T08:20:41;11.70;65.40
76168;DHT22;64927;48.214;16.378;2024-02-04T08:23:06;11.60;64.80
76168;DHT22;64927;48.214;16.378;2024-02-04T08:25:33;11.70;64.70
76168;DHT22;64927;48.214;16.378;2024-02-04T08:28:01;11.70;64.80
76168;DHT22;64927;48.214;16.378;2024-02-04T08:30:27;11.70;64.90
76168;DHT22;64927;48.214;16.378;2024-02-04T08:32:52;11.70;65.00
76168;DHT22;64927;48.214;16.378;2024-02-04T08:35:18;11.70;64.50
76168;DHT22;64927;48.214;16.378;2024-02-04T08:37:46;11.70;64.60
76168;DHT22;64927;48.214;16.378;2024-02-04T08:40:14;11.70;64.70
76168;DHT22;64927;48.214;16.378;2024-02-04T08:42:39;11.80;64.60
76168;DHT22;64927;48.214;16.378;2024-02-04T08:45:06;11.80;64.50
76168;DHT22;64927;48.214;16.378;2024-02-04T08:47:31;11.80;64.40
76168;DHT22;64927;48.214;16.378;2024-02-04T08:49:59;11.80;64.20
76168;DHT22;64927;48.214;16.378;2024-02-04T08:52:25;11.80;63.90
76168;DHT22;64927;48.214;16.378;2024-02-04T08:54:50;11.90;64.10
76168;DHT22;64927;48.214;16.378;2024-02-04T08:57:16;12.00;63.70
76168;DHT22;64927;48.214;16.378;2024-02-04T08:59:42;12.00;62.80
76168;DHT22;64927;48.214;16.378;2024-02-04T09:02:07;12.10;62.90
76168;DHT22;64927;48.214;16.378;2024-02-04T09:04:33;12.10;63.00
76168;DHT22;64927;48.214;16.378;2024-02-04T09:07:08;12.30;62.50
76168;DHT22;64927;48.214;16.378;2024-02-04T09:09:34;12.40;62.40
76168;DHT22;64927;48.214;16.378;2024-02-04T09:12:02;12.30;62.10
76168;DHT22;64927;48.214;16.378;2024-02-04T09:14:28;12.20;62.50
76168;DHT22;64927;48.214;16.378;2024-02-04T09:16:53;12.20;62.10
76168;DHT22;64927;48.214;16.378;2024-02-04T09:19:19;12.20;63.00
76168;DHT22;64927;48.214;16.378;2024-02-04T09:21:44;12.40;62.10
76168;DHT22;64927;48.214;16.378;2024-02-04T09:24:10;12.40;61.90
76168;DHT22;64927;48.214;16.378;2024-02-04T09:26:36;12.40;61.40
76168;DHT22;64927;48.214;16.378;2024-02-04T09:29:02;12.50;61.40
76168;DHT22;64927;48.214;16.378;2024-02-04T09:31:27;12.50;61.60
76168;DHT22;64927;48.214;16.378;2024-02-04T09:33:53;12.60;61.60
76168;DHT22;64927;48.214;16.378;2024-02-04T09:36:19;12.50;61.80
76168;DHT22;64927;48.214;16.378;2024-02-04T09:38:46;12.60;61.50
76168;DHT22;64927;48.214;16.378;2024-02-04T09:41:12;12.50;61.60
76168;DHT22;64927;48.214;16.378;2024-02-04T09:43:38;12.60;61.60
76168;DHT22;64927;48.214;16.378;2024-02-04T09:46:04;12.50;61.50
76168;DHT22;64927;48.214;16.378;2024-02-04T09:48:32;12.60;61.30
76168;DHT22;64927;48.214;16.378;2024-02-04T09:50:58;12.60;61.50
76168;DHT22;64927;48.214;16.378;2024-02-04T09:53:33;12.60;61.80
76168;DHT22;64927;48.214;16.378;2024-02-04T09:56:02;12.70;61.50
76168;DHT22;64927;48.214;16.378;2024-02-04T09:58:28;12.60;61.70
76168;DHT22;64927;48.214;16.378;2024-02-04T10:00:54;12.70;61.60
76168;DHT22;64927;48.214;16.378;2024-02-04T10:03:20;12.60;61.30
76168;DHT22;64927;48.214;16.378;2024-02-04T10:05:46;12.70;61.50
76168;DHT22;64927;48.214;16.378;2024-02-04T10:08:13;12.80;62.10
76168;DHT22;64927;48.214;16.378;2024-02-04T10:10:39;13.00;60.80
76168;DHT22;64927;48.214;16.378;2024-02-04T10:13:11;13.10;60.60
76168;DHT22;64927;48.214;16.378;2024-02-04T10:15:39;13.20;60.40
76168;DHT22;64927;48.214;16.378;2024-02-04T10:18:05;13.10;60.90
76168;DHT22;64927;48.214;16.378;2024-02-04T10:20:32;13.30;60.30
76168;DHT22;64927;48.214;16.378;2024-02-04T10:22:58;13.40;60.30
76168;DHT22;64927;48.214;16.378;2024-02-04T10:25:23;13.40;60.40
76168;DHT22;64927;48.214;16.378;2024-02-04T10:27:52;13.40;59.70
76168;DHT22;64927;48.214;16.378;2024-02-04T10:30:24;13.60;59.50
76168;DHT22;64927;48.214;16.378;2024-02-04T10:32:53;13.40;59.70
76168;DHT22;64927;48.214;16.378;2024-02-04T10:35:23;13.50;59.40
76168;DHT22;64927;48.214;16.378;2024-02-04T10:37:49;13.40;60.00
76168;DHT22;64927;48.214;16.378;2024-02-04T10:40:20;13.40;59.90
76168;DHT22;64927;48.214;16.378;2024-02-04T10:42:46;13.50;59.90
76168;DHT22;64927;48.214;16.378;2024-02-04T10:45:17;13.30;60.30
76168;DHT22;64927;48.214;16.378;2024-02-04T10:47:44;13.20;60.30
76168;DHT22;64927;48.214;16.378;2024-02-04T10:50:16;13.20;60.30
76168;DHT22;64927;48.214;16.378;2024-02-04T10:52:46;13.10;60.70
76168;DHT22;64927;48.214;16.378;2024-02-04T10:55:21;12.90;60.80
76168;DHT22;64927;48.214;16.378;2024-02-04T10:57:52;12.90;60.90
76168;DHT22;64927;48.214;16.378;2024-02-04T11:00:18;12.90;60.90
76168;DHT22;64927;48.214;16.378;2024-02-04T11:02:46;12.90;61.30
76168;DHT22;64927;48.214;16.378;2024-02-04T11:05:15;12.90;61.40
76168;DHT22;64927;48.214;16.378;2024-02-04T11:07:47;12.90;61.60
76168;DHT22;64927;48.214;16.378;2024-02-04T11:10:14;12.90;61.50
76168;DHT22;64927;48.214;16.378;2024-02-04T11:12:41;13.00;61.50
76168;DHT22;64927;48.214;16.378;2024-02-04T11:15:09;13.10;61.40
76168;DHT22;64927;48.214;16.378;2024-02-04T11:20:46;13.10;61.00
76168;DHT22;64927;48.214;16.378;2024-02-04T11:28:16;13.20;60.80
76168;DHT22;64927;48.214;16.378;2024-02-04T11:30:45;13.20;60.90
76168;DHT22;64927;48.214;16.378;2024-02-04T11:33:13;13.20;61.00
76168;DHT22;64927;48.214;16.378;2024-02-04T11:35:57;13.00;61.40
76168;DHT22;64927;48.214;16.378;2024-02-04T11:38:35;12.90;61.60
76168;DHT22;64927;48.214;16.378;2024-02-04T11:41:05;12.90;61.80
76168;DHT22;64927;48.214;16.378;2024-02-04T11:43:35;12.90;62.00
76168;DHT22;64927;48.214;16.378;2024-02-04T11:46:03;12.90;61.90
76168;DHT22;64927;48.214;16.378;2024-02-04T11:48:30;12.80;61.90
76168;DHT22;64927;48.214;16.378;2024-02-04T11:50:58;12.80;62.10
76168;DHT22;64927;48.214;16.378;2024-02-04T11:53:26;12.90;61.90
76168;DHT22;64927;48.214;16.378;2024-02-04T11:55:55;12.90;62.00
76168;DHT22;64927;48.214;16.378;2024-02-04T11:58:21;12.80;62.40
76168;DHT22;64927;48.214;16.378;2024-02-04T12:00:47;12.90;62.30
76168;DHT22;64927;48.214;16.378;2024-02-04T12:03:16;12.80;62.50
76168;DHT22;64927;48.214;16.378;2024-02-04T12:05:43;12.80;62.60
76168;DHT22;64927;48.214;16.378;2024-02-04T12:08:11;12.60;62.70
76168;DHT22;64927;48.214;16.378;2024-02-04T12:10:37;12.60;62.90
76168;DHT22;64927;48.214;16.378;2024-02-04T12:13:05;12.60;63.00
76168;DHT22;64927;48.214;16.378;2024-02-04T12:15:35;12.60;62.60
76168;DHT22;64927;48.214;16.378;2024-02-04T12:18:08;12.80;62.50
76168;DHT22;64927;48.214;16.378;2024-02-04T12:20:39;12.90;61.70
76168;DHT22;64927;48.214;16.378;2024-02-04T12:23:06;12.90;61.50
76168;DHT22;64927;48.214;16.378;2024-02-04T12:25:35;13.00;61.20
76168;DHT22;64927;48.214;16.378;2024-02-04T12:28:04;12.90;61.00
76168;DHT22;64927;48.214;16.378;2024-02-04T12:30:31;13.00;61.00
76168;DHT22;64927;48.214;16.378;2024-02-04T12:32:58;13.00;61.00
76168;DHT22;64927;48.214;16.378;2024-02-04T12:35:29;12.90;61.00
76168;DHT22;64927;48.214;16.378;2024-02-04T12:37:56;12.80;60.80
76168;DHT22;64927;48.214;16.378;2024-02-04T12:40:29;12.80;61.20
76168;DHT22;64927;48.214;16.378;2024-02-04T12:43:00;12.80;61.20
76168;DHT22;64927;48.214;16.378;2024-02-04T12:45:30;12.80;61.20
76168;DHT22;64927;48.214;16.378;2024-02-04T12:47:58;12.90;61.10
76168;DHT22;64927;48.214;16.378;2024-02-04T12:50:25;12.90;60.70
76168;DHT22;64927;48.214;16.378;2024-02-04T12:53:03;12.80;61.20
76168;DHT22;64927;48.214;16.378;2024-02-04T12:55:33;12.80;61.50
76168;DHT22;64927;48.214;16.378;2024-02-04T13:00:29;12.80;61.60
76168;DHT22;64927;48.214;16.378;2024-02-04T13:02:54;12.80;61.50
76168;DHT22;64927;48.214;16.378;2024-02-04T13:05:24;12.80;61.50
76168;DHT22;64927;48.214;16.378;2024-02-04T13:07:56;12.80;61.50
76168;DHT22;64927;48.214;16.378;2024-02-04T13:10:26;12.80;61.50
76168;DHT22;64927;48.214;16.378;2024-02-04T13:13:05;12.70;61.50
76168;DHT22;64927;48.214;16.378;2024-02-04T13:15:37;12.80;61.70
76168;DHT22;64927;48.214;16.378;2024-02-04T13:18:03;12.90;61.40
76168;DHT22;64927;48.214;16.378;2024-02-04T13:20:32;13.00;60.90
76168;DHT22;64927;48.214;16.378;2024-02-04T13:22:58;12.90;60.70
76168;DHT22;64927;48.214;16.378;2024-02-04T13:25:25;13.00;60.70
76168;DHT22;64927;48.214;16.378;2024-02-04T13:27:51;12.90;60.60
76168;DHT22;64927;48.214;16.378;2024-02-04T13:30:18;12.90;60.50
76168;DHT22;64927;48.214;16.378;2024-02-04T13:32:44;12.90;60.70
76168;DHT22;64927;48.214;16.378;2024-02-04T13:35:13;13.00;60.70
76168;DHT22;64927;48.214;16.378;2024-02-04T13:37:45;12.90;60.70
76168;DHT22;64927;48.214;16.378;2024-02-04T13:40:17;13.00;60.70
76168;DHT22;64927;48.214;16.378;2024-02-04T13:42:43;13.00;60.90
76168;DHT22;64927;48.214;16.378;2024-02-04T13:45:12;13.10;60.80
76168;DHT22;64927;48.214;16.378;2024-02-04T13:47:43;12.90;60.90
76168;DHT22;64927;48.214;16.378;2024-02-04T13:50:10;12.90;61.40
76168;DHT22;64927;48.214;16.378;2024-02-04T13:52:39;13.00;60.90
76168;DHT22;64927;48.214;16.378;2024-02-04T13:55:05;12.90;61.10
76168;DHT22;64927;48.214;16.378;2024-02-04T13:57:34;13.00;61.10
76168;DHT22;64927;48.214;16.378;2024-02-04T14:00:00;13.00;60.90
76168;DHT22;64927;48.214;16.378;2024-02-04T14:02:26;13.00;60.90
76168;DHT22;64927;48.214;16.378;2024-02-04T14:04:57;12.90;60.70
76168;DHT22;64927;48.214;16.378;2024-02-04T14:07:25;12.90;61.20
76168;DHT22;64927;48.214;16.378;2024-02-04T14:09:52;12.90;61.40
76168;DHT22;64927;48.214;16.378;2024-02-04T14:12:17;12.80;61.40
76168;DHT22;64927;48.214;16.378;2024-02-04T14:14:43;12.80;61.60
76168;DHT22;64927;48.214;16.378;2024-02-04T14:17:09;12.90;61.40
76168;DHT22;64927;48.214;16.378;2024-02-04T14:19:35;12.80;61.20
76168;DHT22;64927;48.214;16.378;2024-02-04T14:22:00;12.90;61.10
76168;DHT22;64927;48.214;16.378;2024-02-04T14:24:26;12.80;61.20
76168;DHT22;64927;48.214;16.378;2024-02-04T14:26:58;12.80;61.20
76168;DHT22;64927;48.214;16.378;2024-02-04T14:29:25;12.90;61.30
76168;DHT22;64927;48.214;16.378;2024-02-04T14:31:56;12.90;61.00
76168;DHT22;64927;48.214;16.378;2024-02-04T14:34:23;12.80;61.00
76168;DHT22;64927;48.214;16.378;2024-02-04T14:36:49;12.80;61.40
76168;DHT22;64927;48.214;16.378;2024-02-04T14:39:14;12.80;61.30
76168;DHT22;64927;48.214;16.378;2024-02-04T14:41:43;12.80;61.50
76168;DHT22;64927;48.214;16.378;2024-02-04T14:44:11;12.70;61.70
76168;DHT22;64927;48.214;16.378;2024-02-04T14:46:38;12.70;61.60
76168;DHT22;64927;48.214;16.378;2024-02-04T14:49:04;12.70;61.40
76168;DHT22;64927;48.214;16.378;2024-02-04T14:51:30;12.70;61.50
76168;DHT22;64927;48.214;16.378;2024-02-04T14:53:58;12.70;61.70
76168;DHT22;64927;48.214;16.378;2024-02-04T14:56:27;12.60;61.80
76168;DHT22;64927;48.214;16.378;2024-02-04T14:58:52;12.60;61.90
76168;DHT22;64927;48.214;16.378;2024-02-04T15:01:18;12.60;61.80
76168;DHT22;64927;48.214;16.378;2024-02-04T15:03:43;12.70;61.70
76168;DHT22;64927;48.214;16.378;2024-02-04T15:06:09;12.70;61.60
76168;DHT22;64927;48.214;16.378;2024-02-04T15:08:35;12.70;61.50
76168;DHT22;64927;48.214;16.378;2024-02-04T15:11:00;12.70;61.80
76168;DHT22;64927;48.214;16.378;2024-02-04T15:13:26;12.60;61.90
76168;DHT22;64927;48.214;16.378;2024-02-04T15:15:52;12.60;61.90
76168;DHT22;64927;48.214;16.378;2024-02-04T15:18:23;12.60;61.80
76168;DHT22;64927;48.214;16.378;2024-02-04T15:20:49;12.60;61.90
76168;DHT22;64927;48.214;16.378;2024-02-04T15:23:15;12.70;61.60
76168;DHT22;64927;48.214;16.378;2024-02-04T15:25:41;12.60;61.60
76168;DHT22;64927;48.214;16.378;2024-02-04T15:28:11;12.70;61.60